Time;durP1;ratioP1;P1;durP2;ratioP2;P2;SDS_P1;SDS_P2;PMS_P1;PMS_P2;Temp;Humidity;BMP_temperature;BMP_pressure;BME280_temperature;BME280_humidity;BME280_pressure;Samples;Min_cycle;Max_cycle;Signal;HPM_P1;HPM_P2
2022/07/16 00:01:46;;;;;;;3.00;2.70;;;20.90;50.50;;;-142.21;57.33;112049.66;5115062;28;20206;-74
2022/07/16 00:04:14;;;;;;;2.93;2.63;;;20.90;50.60;;;-142.21;56.29;112049.66;5115249;28;20354;-74
2022/07/16 00:06:43;;;;;;;4.83;2.67;;;20.80;50.30;;;-142.21;56.27;112049.66;5115802;28;20287;-74
2022/07/16 00:09:10;;;;;;;3.30;2.87;;;20.70;50.20;;;-142.21;54.42;112049.66;5115761;28;20200;-75
2022/07/16 00:11:38;;;;;;;3.27;2.67;;;20.70;50.00;;;-142.21;54.23;112049.66;5115779;28;20279;-74
2022/07/16 00:14:05;;;;;;;5.13;2.47;;;20.50;49.70;;;-142.21;54.47;112049.66;5115736;28;20286;-74
2022/07/16 00:16:32;;;;;;;3.43;2.53;;;20.40;49.70;;;-142.21;55.90;112049.66;5115200;28;20569;-74
2022/07/16 00:21:47;;;;;;;3.70;2.60;;;20.40;50.30;;;-142.21;56.06;112049.66;5115572;28;20241;-74
2022/07/16 00:24:15;;;;;;;3.23;2.83;;;20.40;50.30;;;-142.21;55.89;112049.66;5114648;28;20239;-74
2022/07/16 00:26:43;;;;;;;3.20;2.70;;;20.40;50.40;;;-142.21;56.09;112049.66;5115552;28;20232;-74
2022/07/16 00:29:10;;;;;;;3.43;2.57;;;20.30;50.30;;;-142.21;56.52;112049.66;5115444;28;20200;-74
2022/07/16 00:31:38;;;;;;;3.07;2.70;;;20.30;50.40;;;-142.21;57.54;112049.66;5114723;28;20249;-74
2022/07/16 00:34:09;;;;;;;3.83;2.60;;;20.30;50.80;;;-142.21;58.61;112049.66;5115523;28;20621;-74
2022/07/16 00:36:37;;;;;;;4.23;2.93;;;20.30;51.10;;;-142.21;59.63;112049.66;5114643;28;20271;-74
2022/07/16 00:39:06;;;;;;;3.80;2.73;;;20.30;51.40;;;-142.21;59.62;112049.66;5115618;28;20540;-74
2022/07/16 00:41:34;;;;;;;3.27;2.93;;;20.30;51.40;;;-142.21;60.64;112049.66;5114993;28;20602;-74
2022/07/16 00:44:05;;;;;;;2.83;2.53;;;20.20;51.50;;;-142.21;59.55;112049.66;5115233;28;20185;-74
2022/07/16 00:46:33;;;;;;;3.27;2.73;;;20.20;51.30;;;-142.21;61.09;112049.66;5114987;28;20287;-74
2022/07/16 00:49:00;;;;;;;3.30;2.60;;;20.20;51.60;;;-142.21;61.83;112049.66;5114613;28;20255;-74
2022/07/16 00:51:30;;;;;;;5.10;3.70;;;20.10;51.90;;;-142.21;61.09;112049.66;5114239;28;20295;-74
2022/07/16 00:53:58;;;;;;;4.07;3.50;;;20.00;51.70;;;-142.21;61.00;112049.66;5115229;28;20208;-74
2022/07/16 00:56:27;;;;;;;4.13;3.07;;;19.90;51.70;;;-142.21;61.54;112049.66;5114279;28;20668;-74
2022/07/16 00:58:55;;;;;;;3.43;3.03;;;20.00;51.80;;;-142.21;61.23;112049.66;5114794;28;20239;-74
2022/07/16 01:01:24;;;;;;;4.10;3.50;;;19.90;51.80;;;-142.21;62.02;112049.66;5061653;28;20288;-74
2022/07/16 01:03:51;;;;;;;3.33;2.87;;;19.80;51.90;;;-142.21;65.02;112049.66;5114751;28;20215;-74
2022/07/16 01:06:19;;;;;;;3.93;3.03;;;19.70;52.80;;;-142.21;67.21;112049.66;5114251;28;20299;-74
2022/07/16 01:08:50;;;;;;;3.97;2.90;;;19.60;53.30;;;-142.21;67.83;112049.66;5113721;28;20607;-74
2022/07/16 01:11:23;;;;;;;3.73;3.37;;;19.50;53.50;;;-142.21;67.84;112049.66;5114009;28;20611;-74
2022/07/16 01:13:51;;;;;;;4.77;2.90;;;19.50;53.50;;;-142.21;67.31;112049.66;5114437;28;20201;-74
2022/07/16 01:16:22;;;;;;;4.77;2.83;;;19.50;53.50;;;-142.21;66.96;112049.66;5114179;28;20284;-74
2022/07/16 01:18:50;;;;;;;4.23;2.90;;;19.40;53.20;;;-142.21;67.29;112049.66;5114609;28;20184;-74
2022/07/16 01:21:17;;;;;;;4.03;3.10;;;19.40;53.30;;;-142.21;66.87;112049.66;5114051;28;20235;-74
2022/07/16 01:23:49;;;;;;;4.93;3.17;;;19.40;53.30;;;-142.21;67.82;112049.66;5114698;28;20695;-74
2022/07/16 01:26:17;;;;;;;3.43;3.07;;;19.40;53.50;;;-142.21;68.15;112049.66;5114653;28;20196;-74
2022/07/16 01:28:44;;;;;;;4.73;3.20;;;19.40;53.60;;;-142.21;69.19;112049.66;5114244;28;20227;-74
2022/07/16 01:31:12;;;;;;;5.33;3.37;;;19.40;53.90;;;-142.21;70.45;112049.66;5114277;28;20626;-74
2022/07/16 01:33:42;;;;;;;4.03;3.10;;;19.30;54.30;;;-142.21;71.00;112049.66;5113909;28;20286;-74
2022/07/16 01:36:12;;;;;;;3.27;2.87;;;19.30;54.40;;;-142.21;71.36;112049.66;5114286;28;20548;-74
2022/07/16 01:38:41;;;;;;;5.00;3.07;;;19.30;54.70;;;-142.21;71.08;112049.66;5113469;28;20245;-74
2022/07/16 01:41:12;;;;;;;3.80;3.07;;;19.30;54.60;;;-142.21;70.29;112049.66;5113087;28;20192;-74
2022/07/16 01:43:41;;;;;;;3.80;3.10;;;19.20;54.90;;;-142.21;70.63;112049.66;5065910;28;20200;-73
2022/07/16 01:46:08;;;;;;;3.10;2.80;;;19.20;54.40;;;-142.21;71.36;112049.66;5113128;28;20526;-74
2022/07/16 01:48:35;;;;;;;4.00;3.00;;;19.10;54.40;;;-142.21;72.14;112049.66;5113735;28;20507;-74
2022/07/16 01:51:03;;;;;;;3.17;2.87;;;19.10;55.30;;;-142.21;71.55;112049.66;5113778;28;20952;-74
2022/07/16 01:53:30;;;;;;;3.83;2.80;;;19.00;54.50;;;-142.21;71.64;112049.66;5113873;28;20256;-74
2022/07/16 01:55:57;;;;;;;3.03;2.73;;;19.00;54.50;;;-142.21;71.41;112049.66;5112324;28;20214;-76
2022/07/16 01:58:26;;;;;;;3.67;2.93;;;19.00;54.50;;;-142.21;72.09;112049.66;5113954;28;20282;-75
2022/07/16 02:00:54;;;;;;;4.73;3.00;;;19.00;54.90;;;-142.21;73.08;112049.66;5114446;28;20240;-75
2022/07/16 02:03:22;;;;;;;6.17;3.00;;;18.90;55.20;;;-142.21;74.22;112049.66;5113421;28;20207;-75
2022/07/16 02:05:50;;;;;;;3.40;3.03;;;18.90;55.50;;;-142.21;74.46;112049.66;5114199;28;20287;-79
2022/07/16 02:08:17;;;;;;;4.33;2.97;;;18.90;55.60;;;-142.21;75.10;112049.66;5103868;28;20264;-79
2022/07/16 02:10:44;;;;;;;4.40;3.20;;;18.90;55.90;;;-142.21;75.36;112049.66;5093692;28;20319;-78
2022/07/16 02:13:12;;;;;;;3.50;3.00;;;18.80;55.80;;;-142.21;75.38;112049.66;5105744;28;20204;-79
2022/07/16 02:15:40;;;;;;;2.97;2.67;;;18.80;55.80;;;-142.21;76.05;112049.66;5113491;28;20231;-78
2022/07/16 02:18:07;;;;;;;3.80;2.70;;;18.80;56.10;;;-142.21;76.50;112049.66;5114232;28;20641;-79
2022/07/16 02:20:34;;;;;;;3.63;3.13;;;18.80;56.30;;;-142.21;77.14;112049.66;5113413;28;20844;-78
2022/07/16 02:23:05;;;;;;;4.57;2.80;;;18.70;56.40;;;-142.21;77.67;112049.66;5113786;28;20484;-79
2022/07/16 02:25:32;;;;;;;3.53;3.07;;;18.70;56.70;;;-142.21;78.34;112049.66;5113665;28;20192;-78
2022/07/16 02:28:08;;;;;;;4.60;3.10;;;18.60;57.00;;;-142.21;78.65;112049.66;5113399;28;21064;-79
2022/07/16 02:30:36;;;;;;;6.23;3.67;;;18.50;57.20;;;-142.21;78.81;112049.66;5113641;28;20465;-78
2022/07/16 02:33:06;;;;;;;6.33;3.00;;;18.50;57.30;;;-142.21;79.10;112049.66;5113563;28;20203;-78
2022/07/16 02:35:34;;;;;;;5.43;2.83;;;18.50;57.50;;;-142.21;79.22;112049.66;5113088;28;20459;-79
2022/07/16 02:38:02;;;;;;;3.00;2.70;;;18.50;57.30;;;-142.21;79.52;112049.66;5113315;28;20537;-79
2022/07/16 02:40:33;;;;;;;4.47;3.20;;;18.50;57.30;;;-142.21;79.55;112049.66;5092332;28;20438;-78
2022/07/16 02:43:01;;;;;;;4.00;3.30;;;18.50;57.50;;;-142.21;80.10;112049.66;5093500;28;20434;-79
2022/07/16 02:45:29;;;;;;;3.57;3.10;;;18.40;57.70;;;-142.21;80.99;112049.66;5092704;28;20545;-78
2022/07/16 02:47:56;;;;;;;4.57;3.47;;;18.30;58.40;;;-142.21;81.90;112049.66;5093099;28;20518;-79
2022/07/16 02:50:25;;;;;;;5.23;3.10;;;18.10;58.40;;;-142.21;82.32;112049.66;5092431;28;20498;-79
2022/07/16 02:52:52;;;;;;;4.73;3.90;;;18.00;58.60;;;-142.21;82.81;112049.66;5093321;28;20844;-78
2022/07/16 02:55:20;;;;;;;3.47;2.93;;;17.90;58.70;;;-142.21;82.82;112049.66;5093165;28;20857;-79
2022/07/16 02:57:47;;;;;;;4.53;3.43;;;18.00;58.90;;;-142.21;83.41;112049.66;5074857;28;20462;-79
2022/07/16 03:00:17;;;;;;;9.00;3.40;;;18.00;58.90;;;-142.21;83.49;112049.66;5092991;28;20451;-79
2022/07/16 03:02:45;;;;;;;3.87;3.40;;;17.90;59.00;;;-142.21;83.70;112049.66;5108718;28;20525;-79
2022/07/16 03:05:13;;;;;;;4.50;2.83;;;18.00;59.10;;;-142.21;83.09;112049.66;5113260;28;20529;-78
2022/07/16 03:07:42;;;;;;;3.43;3.13;;;18.00;58.90;;;-142.21;82.97;112049.66;5111924;28;20465;-78
2022/07/16 03:10:11;;;;;;;4.33;3.33;;;18.00;58.90;;;-142.21;83.06;112049.66;5112821;28;20559;-78
2022/07/16 03:12:42;;;;;;;4.90;3.13;;;18.00;59.10;;;-142.21;83.28;112049.66;5094834;28;20442;-79
2022/07/16 03:15:11;;;;;;;3.03;2.70;;;17.90;58.60;;;-142.21;83.20;112049.66;5113299;28;20512;-78
2022/07/16 03:17:39;;;;;;;3.43;3.00;;;17.80;58.80;;;-142.21;83.42;112049.66;5112344;28;20487;-78
2022/07/16 03:20:08;;;;;;;5.67;3.20;;;17.90;59.00;;;-142.21;82.96;112049.66;5113064;28;20993;-77
2022/07/16 03:22:35;;;;;;;4.37;3.40;;;17.80;58.90;;;-142.21;82.81;112049.66;5112389;28;20441;-77
2022/07/16 03:25:05;;;;;;;4.40;3.13;;;17.80;58.80;;;-142.21;82.45;112049.66;5112495;28;20445;-78
2022/07/16 03:27:33;;;;;;;3.80;2.70;;;17.80;58.80;;;-142.21;82.49;112049.66;5112153;28;20437;-78
2022/07/16 03:30:00;;;;;;;3.43;2.80;;;17.80;58.60;;;-142.21;83.11;112049.66;5113306;28;20523;-77
2022/07/16 03:32:28;;;;;;;3.40;2.90;;;17.80;58.70;;;-142.21;83.24;112049.66;5116827;28;20454;-76
2022/07/16 03:34:55;;;;;;;4.53;3.07;;;17.80;58.70;;;-142.21;82.94;112049.66;5119912;28;20484;-77
2022/07/16 03:37:22;;;;;;;4.50;3.20;;;17.70;58.70;;;-142.21;82.77;112049.66;5119208;28;20477;-78
2022/07/16 03:39:49;;;;;;;3.67;2.70;;;17.60;58.50;;;-142.21;82.52;112049.66;5119465;28;20524;-78
2022/07/16 03:42:18;;;;;;;3.67;2.87;;;17.60;58.60;;;-142.21;82.36;112049.66;5119339;28;20445;-77
2022/07/16 03:44:45;;;;;;;3.17;2.87;;;17.60;58.60;;;-142.21;82.14;112049.66;5119303;28;20501;-78
2022/07/16 03:47:12;;;;;;;3.43;3.13;;;17.60;58.50;;;-142.21;82.23;112049.66;5120009;28;20239;-79
2022/07/16 03:49:39;;;;;;;3.87;3.10;;;17.60;58.50;;;-142.21;82.80;112049.66;5119067;28;20484;-78
2022/07/16 03:52:06;;;;;;;3.73;3.00;;;17.50;59.00;;;-142.21;82.88;112049.66;5119289;28;20881;-78
2022/07/16 03:54:34;;;;;;;3.60;2.93;;;17.50;58.60;;;-142.21;82.80;112049.66;5118623;28;20868;-78
2022/07/16 03:57:01;;;;;;;3.33;2.90;;;17.50;58.70;;;-142.21;82.66;112049.66;5119695;28;20536;-78
2022/07/16 03:59:29;;;;;;;4.27;2.70;;;17.40;58.70;;;-142.21;82.68;112049.66;5118512;28;20458;-78
2022/07/16 04:01:56;;;;;;;7.30;2.90;;;17.50;59.40;;;-142.21;82.76;112049.66;5119168;28;20976;-78
2022/07/16 04:04:24;;;;;;;4.10;3.37;;;17.50;58.80;;;-142.21;83.44;112049.66;5119489;28;20532;-78
2022/07/16 04:06:51;;;;;;;4.57;2.83;;;17.50;59.50;;;-142.21;83.73;112049.66;5119133;28;21008;-78
2022/07/16 04:09:18;;;;;;;4.40;2.83;;;17.40;59.10;;;-142.21;82.75;112049.66;5119054;28;20572;-78
2022/07/16 04:11:45;;;;;;;3.30;3.00;;;17.50;58.80;;;-142.21;82.85;112049.66;5119052;28;20434;-78
2022/07/16 04:14:12;;;;;;;5.43;3.20;;;17.50;59.70;;;-142.21;83.21;112049.66;5119423;28;20485;-78
2022/07/16 04:16:41;;;;;;;3.17;2.80;;;17.40;59.40;;;-142.21;83.46;112049.66;5118588;28;20984;-77
2022/07/16 04:19:08;;;;;;;5.50;3.40;;;17.40;59.40;;;-142.21;83.97;112049.66;5119241;28;20498;-77
2022/07/16 04:21:37;;;;;;;3.40;3.10;;;17.40;59.40;;;-142.21;84.65;112049.66;5119051;28;20461;-79
2022/07/16 04:24:04;;;;;;;4.37;3.13;;;17.40;59.50;;;-142.21;84.99;112049.66;5119860;28;20472;-79
2022/07/16 04:26:32;;;;;;;4.53;3.60;;;17.50;59.80;;;-142.21;85.29;112049.66;5118877;28;20519;-79
2022/07/16 04:28:59;;;;;;;3.27;2.73;;;17.50;60.60;;;-142.21;85.90;112049.66;5118934;28;21027;-78
2022/07/16 04:31:26;;;;;;;3.17;2.87;;;17.50;59.90;;;-142.21;86.81;112049.66;5119391;28;20996;-78
2022/07/16 04:33:55;;;;;;;4.53;3.27;;;17.50;60.30;;;-142.21;86.31;112049.66;5119033;28;20492;-78
2022/07/16 04:36:22;;;;;;;5.07;3.67;;;17.60;60.40;;;-142.21;85.95;112049.66;5119202;28;20441;-77
2022/07/16 04:38:49;;;;;;;6.43;3.70;;;17.60;60.40;;;-142.21;85.74;112049.66;5118756;28;20433;-78
2022/07/16 04:41:16;;;;;;;8.40;3.60;;;17.70;60.20;;;-142.21;86.02;112049.66;5118841;28;20537;-78
2022/07/16 04:43:43;;;;;;;4.67;3.07;;;17.80;60.50;;;-142.21;86.29;112049.66;5115154;28;20958;-78
2022/07/16 04:46:11;;;;;;;4.47;3.47;;;17.80;60.50;;;-142.21;86.52;112049.66;5115888;28;20548;-78
2022/07/16 04:48:38;;;;;;;3.07;2.80;;;17.80;60.70;;;-142.21;86.57;112049.66;5114989;28;20532;-79
2022/07/16 04:51:06;;;;;;;3.00;2.70;;;17.80;60.40;;;-142.21;87.04;112049.66;5115433;28;20445;-78
2022/07/16 04:53:37;;;;;;;3.30;3.00;;;17.90;60.90;;;-142.21;87.48;112049.66;5115385;28;20853;-78
2022/07/16 04:56:05;;;;;;;4.93;3.40;;;17.90;61.10;;;-142.21;87.74;112049.66;5100137;28;20442;-76
2022/07/16 04:58:33;;;;;;;4.27;3.47;;;17.90;61.10;;;-142.21;87.62;112049.66;5114754;28;20783;-77
2022/07/16 05:01:01;;;;;;;3.10;2.37;;;18.00;61.20;;;-142.21;86.23;112049.66;5115600;28;20540;-78
2022/07/16 05:03:28;;;;;;;4.37;3.20;;;18.00;60.50;;;-142.21;85.56;112049.66;5115100;28;20454;-75
2022/07/16 05:05:55;;;;;;;5.53;3.13;;;18.10;60.00;;;-142.21;85.02;112049.66;5115816;28;20476;-78
2022/07/16 05:08:24;;;;;;;3.40;2.93;;;18.20;60.10;;;-142.21;84.80;112049.66;5115276;28;20452;-78
2022/07/16 05:10:51;;;;;;;4.03;3.07;;;18.20;60.00;;;-142.21;85.51;112049.66;5098214;28;20530;-78
2022/07/16 05:13:18;;;;;;;4.60;3.07;;;18.30;60.20;;;-142.21;85.51;112049.66;5115497;28;20449;-79
2022/07/16 05:15:46;;;;;;;3.33;3.03;;;18.40;61.10;;;-142.21;85.97;112049.66;5114908;28;20783;-78
2022/07/16 05:18:13;;;;;;;5.30;3.33;;;18.50;60.40;;;-142.21;83.63;112049.66;5096796;28;20507;-79
2022/07/16 05:20:40;;;;;;;4.23;3.20;;;18.50;59.60;;;-142.21;83.09;112049.66;5094185;28;20915;-79
2022/07/16 05:23:07;;;;;;;5.67;3.43;;;18.60;59.40;;;-142.21;80.52;112049.66;5094402;28;20537;-78
2022/07/16 05:25:36;;;;;;;4.83;3.00;;;18.70;58.70;;;-142.21;78.17;112049.66;5094466;28;20857;-79
2022/07/16 05:28:03;;;;;;;3.20;2.90;;;18.80;57.70;;;-142.21;79.71;112049.66;5094748;28;20287;-78
2022/07/16 05:30:31;;;;;;;3.90;3.30;;;18.90;58.00;;;-142.21;81.69;112049.66;5100887;28;20225;-79
2022/07/16 05:32:58;;;;;;;3.50;2.90;;;18.90;58.60;;;-142.21;79.37;112049.66;5114959;28;20533;-77
2022/07/16 05:35:25;;;;;;;3.37;2.87;;;19.00;58.00;;;-142.21;80.89;112049.66;5114753;28;20480;-78
2022/07/16 05:37:52;;;;;;;3.53;3.07;;;19.10;58.50;;;-142.21;80.30;112049.66;5114077;28;20533;-78
2022/07/16 05:40:19;;;;;;;4.47;3.03;;;19.10;58.10;;;-142.21;81.31;112049.66;5062127;28;20938;-78
2022/07/16 05:42:48;;;;;;;3.97;3.13;;;19.20;58.40;;;-142.21;77.70;112049.66;5114621;28;20295;-77
2022/07/16 05:45:15;;;;;;;3.37;3.07;;;19.30;57.30;;;-142.21;78.11;112049.66;5115011;28;20286;-78
2022/07/16 05:47:43;;;;;;;4.80;3.10;;;19.40;57.60;;;-142.21;76.45;112049.66;5113775;28;20260;-78
2022/07/16 05:50:11;;;;;;;3.97;2.87;;;19.40;57.00;;;-142.21;73.67;112049.66;5114461;28;20278;-78
2022/07/16 05:52:38;;;;;;;3.70;2.63;;;19.50;56.40;;;-142.21;72.15;112049.66;5113971;28;20448;-78
2022/07/16 05:55:06;;;;;;;3.30;3.00;;;19.60;55.80;;;-142.21;71.25;112049.66;5096250;28;20196;-78
2022/07/16 05:57:34;;;;;;;3.13;2.80;;;19.70;55.50;;;-142.21;72.46;112049.66;5095691;28;20949;-78
2022/07/16 06:00:03;;;;;;;3.10;2.80;;;19.80;55.90;;;-142.21;70.81;112049.66;5114800;28;20192;-77
2022/07/16 06:02:30;;;;;;;2.83;2.63;;;19.80;55.20;;;-142.21;72.04;112049.66;5114506;28;20303;-78
2022/07/16 06:04:58;;;;;;;3.57;2.67;;;19.90;56.00;;;-142.21;72.92;112049.66;5114516;28;20295;-77
2022/07/16 06:07:25;;;;;;;5.47;3.00;;;20.10;55.90;;;-142.21;74.19;112049.66;5114353;28;20686;-77
2022/07/16 06:09:52;;;;;;;3.70;2.80;;;20.20;56.10;;;-142.21;75.53;112049.66;5113097;28;21079;-78
2022/07/16 06:12:19;;;;;;;3.30;3.00;;;20.20;56.20;;;-142.21;77.31;112049.66;5114188;28;20286;-78
2022/07/16 06:14:47;;;;;;;5.23;2.87;;;20.30;56.60;;;-142.21;70.28;112049.66;5113865;28;20243;-78
2022/07/16 06:17:18;;;;;;;6.23;2.93;;;20.40;55.50;;;-142.21;71.10;112049.66;5114474;28;20286;-78
2022/07/16 06:19:45;;;;;;;2.80;2.50;;;20.50;54.70;;;-142.21;71.93;112049.66;5113434;28;20184;-78
2022/07/16 06:22:12;;;;;;;3.10;2.77;;;20.60;55.20;;;-142.21;69.92;112049.66;5113967;28;20203;-78
2022/07/16 06:24:39;;;;;;;5.10;2.67;;;20.70;54.60;;;-142.21;69.52;112049.66;5113588;28;20261;-78
2022/07/16 06:27:07;;;;;;;4.17;2.47;;;20.70;54.30;;;-142.21;68.97;112049.66;5114090;28;20293;-77
2022/07/16 06:29:34;;;;;;;5.00;2.90;;;20.80;54.20;;;-142.21;67.03;112049.66;5113554;28;20306;-78
2022/07/16 06:32:01;;;;;;;2.63;2.43;;;20.90;53.90;;;-142.21;64.39;112049.66;5113955;28;20272;-78
2022/07/16 06:34:30;;;;;;;3.00;2.50;;;21.00;53.00;;;-142.21;64.19;112049.66;5113900;28;20234;-77
2022/07/16 06:36:57;;;;;;;2.83;2.30;;;21.10;53.00;;;-142.21;63.38;112049.66;5113319;28;20204;-77
2022/07/16 06:39:24;;;;;;;5.27;3.07;;;21.10;52.60;;;-142.21;61.84;112049.66;5113659;28;20200;-76
2022/07/16 06:41:51;;;;;;;4.97;2.60;;;21.20;52.00;;;-142.21;58.26;112049.66;5113238;28;20223;-76
2022/07/16 06:44:19;;;;;;;3.90;2.33;;;21.30;51.30;;;-142.21;56.63;112049.66;5112843;28;20199;-77
2022/07/16 06:46:46;;;;;;;3.97;2.53;;;21.40;50.80;;;-142.21;56.31;112049.66;5112993;28;20207;-77
2022/07/16 06:49:14;;;;;;;3.67;2.13;;;21.50;50.50;;;-142.21;56.20;112049.66;5113597;28;20659;-77
2022/07/16 06:51:43;;;;;;;3.67;2.10;;;21.60;50.40;;;-142.21;53.80;112049.66;5112855;28;20200;-76
2022/07/16 06:54:10;;;;;;;4.63;2.10;;;21.70;49.90;;;-142.21;53.25;112049.66;5113338;28;20263;-78
2022/07/16 06:56:37;;;;;;;2.60;2.40;;;21.80;49.40;;;-142.21;54.09;112049.66;5113156;28;20250;-77
2022/07/16 06:59:05;;;;;;;2.50;2.30;;;21.90;49.70;;;-142.21;54.55;112049.66;5113189;28;20279;-76
2022/07/16 07:01:32;;;;;;;2.67;2.20;;;22.10;50.00;;;-142.21;55.16;112049.66;5113634;28;20221;-77
2022/07/16 07:03:59;;;;;;;2.87;2.00;;;22.20;50.00;;;-142.21;52.23;112049.66;5112317;28;20279;-77
2022/07/16 07:06:26;;;;;;;2.33;1.80;;;22.20;49.00;;;-142.21;52.45;112049.66;5112530;28;20206;-76
2022/07/16 07:08:54;;;;;;;2.70;1.90;;;22.40;49.70;;;-142.21;53.38;112049.66;5112466;28;20200;-76
2022/07/16 07:11:22;;;;;;;3.93;2.10;;;22.50;49.40;;;-142.21;54.06;112049.66;5112971;28;20326;-76
2022/07/16 07:13:49;;;;;;;3.63;2.00;;;22.60;49.40;;;-142.21;52.94;112049.66;5112005;28;20579;-75
2022/07/16 07:16:17;;;;;;;2.33;2.10;;;22.70;49.20;;;-142.21;52.73;112049.66;5113178;28;20192;-77
2022/07/16 07:18:44;;;;;;;2.70;2.20;;;22.80;49.20;;;-142.21;52.12;112049.66;5111855;28;20200;-76
2022/07/16 07:21:12;;;;;;;3.60;2.47;;;22.90;48.80;;;-142.21;51.82;112049.66;5113169;28;20606;-77
2022/07/16 07:23:39;;;;;;;5.53;2.20;;;23.00;48.50;;;-142.21;51.54;112049.66;5112120;28;20286;-77
2022/07/16 07:26:08;;;;;;;2.70;2.33;;;23.10;48.70;;;-142.21;50.99;112049.66;5094061;28;20230;-76
2022/07/16 07:28:35;;;;;;;2.80;2.03;;;23.20;48.40;;;-142.21;51.13;112049.66;5112572;28;20656;-76
2022/07/16 07:31:03;;;;;;;4.97;2.10;;;23.40;48.50;;;-142.21;49.56;112049.66;5112544;28;20223;-75
2022/07/16 07:33:30;;;;;;;4.30;3.13;;;23.40;47.60;;;-142.21;48.24;112049.66;5112684;28;20230;-75
2022/07/16 07:35:58;;;;;;;3.93;2.50;;;23.50;47.40;;;-142.21;49.62;112049.66;5112186;28;20397;-76
2022/07/16 07:38:25;;;;;;;4.33;2.17;;;23.60;47.70;;;-142.21;48.58;112049.66;5112435;28;20616;-77
2022/07/16 07:40:52;;;;;;;1.93;1.70;;;23.70;47.40;;;-142.21;47.01;112049.66;5111639;28;20242;-75
2022/07/16 07:43:20;;;;;;;3.20;1.90;;;23.80;46.70;;;-142.21;46.93;112049.66;5112503;28;20278;-75
2022/07/16 07:45:48;;;;;;;4.10;2.07;;;23.90;46.30;;;-142.21;47.01;112049.66;5111587;28;20297;-75
2022/07/16 07:48:15;;;;;;;2.67;1.80;;;24.00;46.60;;;-142.21;46.91;112049.66;5112572;28;20249;-75
2022/07/16 07:50:42;;;;;;;2.70;1.83;;;24.10;46.60;;;-142.21;47.38;112049.66;5111543;28;20281;-75
2022/07/16 07:53:10;;;;;;;2.37;1.80;;;24.20;46.70;;;-142.21;47.50;112049.66;5111728;28;20674;-76
2022/07/16 07:55:39;;;;;;;3.47;2.07;;;24.40;47.00;;;-142.21;46.81;112049.66;5112766;28;20579;-75
2022/07/16 07:58:06;;;;;;;2.80;2.20;;;24.50;46.50;;;-142.21;45.33;112049.66;5111688;28;20712;-75
2022/07/16 08:00:35;;;;;;;2.63;2.03;;;24.60;45.70;;;-142.21;45.62;112049.66;5111881;28;20202;-75
2022/07/16 08:03:02;;;;;;;4.57;1.73;;;24.70;46.00;;;-142.21;43.80;112049.66;5111000;28;20200;-76
2022/07/16 08:05:29;;;;;;;1.77;1.67;;;24.80;44.90;;;-142.21;42.58;112049.66;5112157;28;20199;-75
2022/07/16 08:07:56;;;;;;;2.57;1.73;;;24.90;44.30;;;-142.21;42.60;112049.66;5111961;28;20265;-76
2022/07/16 08:10:24;;;;;;;2.53;1.70;;;24.90;44.40;;;-142.21;42.82;112049.66;5114202;28;20352;-75
2022/07/16 08:12:51;;;;;;;3.00;1.50;;;25.00;44.40;;;-142.21;41.78;112049.66;5113245;28;20203;-75
2022/07/16 08:15:18;;;;;;;2.23;1.80;;;25.10;43.80;;;-142.21;41.81;112049.66;5112452;28;20691;-75
2022/07/16 08:17:47;;;;;;;2.03;1.50;;;25.20;43.60;;;-142.21;40.50;112049.66;5113127;28;20243;-74
2022/07/16 08:20:14;;;;;;;2.27;1.63;;;25.30;43.00;;;-142.21;40.12;112049.66;5115865;28;20280;-75
2022/07/16 08:22:42;;;;;;;2.27;1.60;;;25.40;42.50;;;-142.21;39.76;112049.66;5113318;28;20203;-76
2022/07/16 08:27:55;;;;;;;2.33;1.50;;;25.50;42.30;;;-142.21;40.96;112049.66;5115507;28;20202;-75
2022/07/16 08:30:22;;;;;;;1.93;1.33;;;25.60;43.00;;;-142.21;39.93;112049.66;5116390;28;20262;-75
2022/07/16 08:32:51;;;;;;;2.40;1.37;;;25.70;42.50;;;-142.21;39.89;112049.66;5114918;28;20692;-75
2022/07/16 08:35:19;;;;;;;2.20;1.50;;;25.80;42.40;;;-142.21;39.91;112049.66;5115907;28;20535;-75
2022/07/16 08:37:48;;;;;;;3.83;1.97;;;25.80;42.30;;;-142.21;39.67;112049.66;5114186;28;20616;-75
2022/07/16 08:40:18;;;;;;;2.97;1.70;;;25.90;42.20;;;-142.21;39.51;112049.66;5115700;28;20540;-75
2022/07/16 08:42:47;;;;;;;2.47;1.60;;;26.00;41.90;;;-142.21;40.69;112049.66;5114030;28;20199;-75
2022/07/16 08:45:16;;;;;;;2.60;1.53;;;26.10;43.00;;;-142.21;41.19;112049.66;5115675;28;20196;-76
2022/07/16 08:47:44;;;;;;;3.17;1.70;;;26.20;43.00;;;-142.21;37.95;112049.66;5115138;28;20206;-75
2022/07/16 08:50:15;;;;;;;1.93;1.57;;;26.30;40.80;;;-142.21;39.23;112049.66;5114268;28;20606;-76
2022/07/16 08:52:49;;;;;;;2.87;1.70;;;26.30;41.60;;;-142.21;39.40;112049.66;5114813;28;20211;-75
2022/07/16 08:55:16;;;;;;;3.03;1.70;;;26.40;41.90;;;-142.21;37.23;112049.66;5095212;28;20193;-76
2022/07/16 08:57:49;;;;;;;2.87;1.60;;;26.40;40.20;;;-142.21;38.11;112049.66;5058934;28;20200;-75
2022/07/16 09:00:18;;;;;;;3.00;1.67;;;26.40;40.60;;;-142.21;37.96;112049.66;5095135;28;20180;-76
2022/07/16 09:02:46;;;;;;;2.83;1.60;;;26.50;40.80;;;-142.21;38.38;112049.66;5099482;28;20231;-75
2022/07/16 09:05:15;;;;;;;4.13;1.67;;;26.50;40.70;;;-142.21;38.17;112049.66;5115250;28;20200;-75
2022/07/16 09:07:44;;;;;;;2.03;1.40;;;26.60;40.70;;;-142.21;37.44;112049.66;5114991;28;20214;-75
2022/07/16 09:10:11;;;;;;;2.00;1.50;;;26.70;40.30;;;-142.21;37.51;112049.66;5114952;28;20250;-76
2022/07/16 09:12:42;;;;;;;2.70;1.53;;;26.80;40.20;;;-142.21;37.51;112049.66;5114117;28;20196;-75
2022/07/16 09:15:30;;;;;;;3.37;1.60;;;26.80;40.40;;;-142.21;38.04;112049.66;5115088;28;20284;-75
2022/07/16 09:18:18;;;;;;;2.73;1.60;;;26.90;40.20;;;-142.21;36.73;112049.66;5079106;28;20268;-75
2022/07/16 09:20:50;;;;;;;1.93;1.70;;;27.00;39.10;;;-142.21;35.47;112049.66;5114068;28;20191;-75
2022/07/16 09:23:26;;;;;;;3.63;1.70;;;26.90;38.50;;;-142.21;38.01;112049.66;5114501;28;20283;-75
2022/07/16 09:25:56;;;;;;;2.67;1.93;;;26.90;40.30;;;-142.21;38.74;112049.66;5114182;28;20264;-76
2022/07/16 09:28:26;;;;;;;2.20;1.60;;;27.00;40.90;;;-142.21;34.97;112049.66;5114799;28;20232;-75
2022/07/16 09:30:53;;;;;;;2.27;1.50;;;27.10;38.80;;;-142.21;37.78;112049.66;5113833;28;20259;-76
2022/07/16 09:33:24;;;;;;;1.97;1.70;;;27.20;40.10;;;-142.21;36.90;112049.66;5114881;28;20606;-75
2022/07/16 09:36:08;;;;;;;3.10;2.00;;;27.20;39.80;;;-142.21;36.29;112049.66;5113636;28;20563;-73
2022/07/16 09:38:50;;;;;;;1.57;1.43;;;27.40;39.20;;;-142.21;37.05;112049.66;5113901;28;20192;-73
2022/07/16 09:41:18;;;;;;;1.87;1.60;;;27.50;39.50;;;-142.21;36.80;112049.66;5114578;28;20252;-73
2022/07/16 09:43:45;;;;;;;1.90;1.50;;;27.60;39.50;;;-142.21;36.53;112049.66;5113970;28;20211;-72
2022/07/16 09:46:18;;;;;;;1.83;1.67;;;27.70;39.40;;;-142.21;37.19;112049.66;5114319;28;20298;-73
2022/07/16 09:48:46;;;;;;;4.27;1.73;;;27.80;39.80;;;-142.21;35.52;112049.66;5113516;28;20743;-72
2022/07/16 09:51:18;;;;;;;2.00;1.50;;;27.90;38.80;;;-142.21;36.17;112049.66;5114073;28;20565;-72
2022/07/16 09:53:47;;;;;;;3.67;1.50;;;28.00;38.90;;;-142.21;35.02;112049.66;5113282;28;20232;-72
2022/07/16 09:56:17;;;;;;;1.80;1.60;;;28.10;38.20;;;-142.21;34.93;112049.66;5110856;28;20201;-73
2022/07/16 09:58:51;;;;;;;5.00;1.57;;;28.20;38.10;;;-142.21;35.91;112049.66;5092972;28;20215;-72
2022/07/16 10:01:20;;;;;;;2.20;1.30;;;28.20;38.60;;;-142.21;35.15;112049.66;5107517;28;20191;-72
2022/07/16 10:03:52;;;;;;;1.20;1.10;;;28.30;38.40;;;-142.21;35.26;112049.66;5113167;28;20245;-72
2022/07/16 10:06:21;;;;;;;3.10;1.40;;;28.40;37.70;;;-142.21;33.37;112049.66;5114063;28;20251;-73
2022/07/16 10:08:48;;;;;;;2.17;1.50;;;28.50;36.30;;;-142.21;32.77;112049.66;5113585;28;20251;-73
2022/07/16 10:11:16;;;;;;;1.63;1.43;;;28.50;36.00;;;-142.21;33.57;112049.66;5113589;28;20266;-72